sensor_id;sensor_type;location;lat;lon;timestamp;P1;durP1;ratioP1;P2;durP2;ratioP2
65656;SDS011;57397;50.096;14.404;2023-03-01T00:02:05;12.10;;;7.47;;
65656;SDS011;57397;50.096;14.404;2023-03-01T00:04:31;13.30;;;7.85;;
65656;SDS011;57397;50.096;14.404;2023-03-01T00:06:56;11.30;;;7.18;;
65656;SDS011;57397;50.096;14.404;2023-03-01T00:09:22;12.27;;;7.35;;
65656;SDS011;57397;50.096;14.404;2023-03-01T00:11:48;10.40;;;6.95;;
65656;SDS011;57397;50.096;14.404;2023-03-01T00:14:13;11.38;;;6.93;;
65656;SDS011;57397;50.096;14.404;2023-03-01T00:16:41;12.00;;;7.18;;
65656;SDS011;57397;50.096;14.404;2023-03-01T00:19:12;13.13;;;7.85;;
65656;SDS011;57397;50.096;14.404;2023-03-01T00:21:39;13.20;;;7.60;;
65656;SDS011;57397;50.096;14.404;2023-03-01T00:24:05;11.02;;;6.70;;
65656;SDS011;57397;50.096;14.404;2023-03-01T00:26:32;12.25;;;7.65;;
65656;SDS011;57397;50.096;14.404;2023-03-01T00:28:58;13.45;;;7.82;;
65656;SDS011;57397;50.096;14.404;2023-03-01T00:31:24;12.48;;;7.57;;
65656;SDS011;57397;50.096;14.404;2023-03-01T00:33:52;12.50;;;7.50;;
65656;SDS011;57397;50.096;14.404;2023-03-01T00:36:22;13.68;;;7.85;;
65656;SDS011;57397;50.096;14.404;2023-03-01T00:38:48;12.63;;;7.57;;
65656;SDS011;57397;50.096;14.404;2023-03-01T00:41:15;14.05;;;8.18;;
65656;SDS011;57397;50.096;14.404;2023-03-01T00:43:41;13.45;;;8.13;;
65656;SDS011;57397;50.096;14.404;2023-03-01T00:46:12;11.85;;;7.70;;
65656;SDS011;57397;50.096;14.404;2023-03-01T00:48:41;13.90;;;7.65;;
65656;SDS011;57397;50.096;14.404;2023-03-01T00:53:33;13.52;;;7.75;;
65656;SDS011;57397;50.096;14.404;2023-03-01T00:55:59;14.85;;;8.32;;
65656;SDS011;57397;50.096;14.404;2023-03-01T00:58:24;13.63;;;8.13;;
65656;SDS011;57397;50.096;14.404;2023-03-01T01:00:50;13.63;;;8.27;;
65656;SDS011;57397;50.096;14.404;2023-03-01T01:03:16;14.50;;;8.52;;
65656;SDS011;57397;50.096;14.404;2023-03-01T01:05:41;14.73;;;8.35;;
65656;SDS011;57397;50.096;14.404;2023-03-01T01:08:07;15.82;;;8.48;;
65656;SDS011;57397;50.096;14.404;2023-03-01T01:10:35;13.18;;;8.32;;
65656;SDS011;57397;50.096;14.404;2023-03-01T01:13:01;12.15;;;7.57;;
65656;SDS011;57397;50.096;14.404;2023-03-01T01:15:29;12.82;;;7.82;;
65656;SDS011;57397;50.096;14.404;2023-03-01T01:17:59;16.30;;;8.93;;
65656;SDS011;57397;50.096;14.404;2023-03-01T01:20:24;15.02;;;8.38;;
65656;SDS011;57397;50.096;14.404;2023-03-01T01:22:50;14.50;;;8.27;;
65656;SDS011;57397;50.096;14.404;2023-03-01T01:25:16;14.50;;;8.65;;
65656;SDS011;57397;50.096;14.404;2023-03-01T01:27:41;14.70;;;8.25;;
65656;SDS011;57397;50.096;14.404;2023-03-01T01:30:07;13.68;;;8.20;;
65656;SDS011;57397;50.096;14.404;2023-03-01T01:32:33;12.90;;;8.00;;
65656;SDS011;57397;50.096;14.404;2023-03-01T01:34:58;14.25;;;8.55;;
65656;SDS011;57397;50.096;14.404;2023-03-01T01:37:24;15.13;;;8.13;;
65656;SDS011;57397;50.096;14.404;2023-03-01T01:39:56;11.88;;;8.23;;
65656;SDS011;57397;50.096;14.404;2023-03-01T01:42:25;14.63;;;8.60;;
65656;SDS011;57397;50.096;14.404;2023-03-01T01:47:51;14.02;;;7.95;;
65656;SDS011;57397;50.096;14.404;2023-03-01T01:50:18;12.38;;;8.13;;
65656;SDS011;57397;50.096;14.404;2023-03-01T01:52:43;13.75;;;8.40;;
65656;SDS011;57397;50.096;14.404;2023-03-01T01:55:12;14.00;;;8.10;;
65656;SDS011;57397;50.096;14.404;2023-03-01T01:57:50;12.95;;;8.23;;
65656;SDS011;57397;50.096;14.404;2023-03-01T02:02:46;12.68;;;7.78;;
65656;SDS011;57397;50.096;14.404;2023-03-01T02:05:20;12.60;;;7.78;;
65656;SDS011;57397;50.096;14.404;2023-03-01T02:07:50;12.57;;;7.47;;
65656;SDS011;57397;50.096;14.404;2023-03-01T02:10:16;13.70;;;7.85;;
65656;SDS011;57397;50.096;14.404;2023-03-01T02:12:42;13.32;;;8.00;;
65656;SDS011;57397;50.096;14.404;2023-03-01T02:15:07;14.27;;;7.75;;
65656;SDS011;57397;50.096;14.404;2023-03-01T02:17:33;12.77;;;7.93;;
65656;SDS011;57397;50.096;14.404;2023-03-01T02:22:48;11.88;;;7.68;;
65656;SDS011;57397;50.096;14.404;2023-03-01T02:25:23;13.85;;;8.07;;
65656;SDS011;57397;50.096;14.404;2023-03-01T02:30:31;13.18;;;8.38;;
65656;SDS011;57397;50.096;14.404;2023-03-01T02:32:57;13.82;;;7.70;;
65656;SDS011;57397;50.096;14.404;2023-03-01T02:35:28;14.40;;;8.50;;
65656;SDS011;57397;50.096;14.404;2023-03-01T02:37:57;13.15;;;7.93;;
65656;SDS011;57397;50.096;14.404;2023-03-01T02:40:25;13.07;;;8.35;;
65656;SDS011;57397;50.096;14.404;2023-03-01T02:42:54;12.65;;;8.07;;
65656;SDS011;57397;50.096;14.404;2023-03-01T02:45:21;13.27;;;8.40;;
65656;SDS011;57397;50.096;14.404;2023-03-01T02:47:48;12.52;;;8.02;;
65656;SDS011;57397;50.096;14.404;2023-03-01T02:55:54;12.40;;;7.57;;
65656;SDS011;57397;50.096;14.404;2023-03-01T02:58:20;12.73;;;7.55;;
65656;SDS011;57397;50.096;14.404;2023-03-01T03:00:46;12.50;;;7.65;;
65656;SDS011;57397;50.096;14.404;2023-03-01T03:03:14;14.07;;;7.90;;
65656;SDS011;57397;50.096;14.404;2023-03-01T03:05:41;13.80;;;7.97;;
65656;SDS011;57397;50.096;14.404;2023-03-01T03:08:06;13.23;;;7.88;;
65656;SDS011;57397;50.096;14.404;2023-03-01T03:10:34;12.88;;;8.20;;
65656;SDS011;57397;50.096;14.404;2023-03-01T03:13:03;13.48;;;7.85;;
65656;SDS011;57397;50.096;14.404;2023-03-01T03:15:30;13.40;;;7.82;;
65656;SDS011;57397;50.096;14.404;2023-03-01T03:17:57;12.63;;;8.38;;
65656;SDS011;57397;50.096;14.404;2023-03-01T03:20:24;12.90;;;8.15;;
65656;SDS011;57397;50.096;14.404;2023-03-01T03:22:52;12.55;;;7.82;;
65656;SDS011;57397;50.096;14.404;2023-03-01T03:25:19;13.35;;;8.00;;
65656;SDS011;57397;50.096;14.404;2023-03-01T03:27:46;14.73;;;8.23;;
65656;SDS011;57397;50.096;14.404;2023-03-01T03:30:14;14.57;;;8.55;;
65656;SDS011;57397;50.096;14.404;2023-03-01T03:32:41;14.50;;;8.18;;
65656;SDS011;57397;50.096;14.404;2023-03-01T03:35:15;14.80;;;8.48;;
65656;SDS011;57397;50.096;14.404;2023-03-01T03:37:41;12.23;;;7.72;;
65656;SDS011;57397;50.096;14.404;2023-03-01T03:40:25;14.55;;;8.43;;
65656;SDS011;57397;50.096;14.404;2023-03-01T03:42:54;15.15;;;8.45;;
65656;SDS011;57397;50.096;14.404;2023-03-01T03:45:19;15.15;;;8.23;;
65656;SDS011;57397;50.096;14.404;2023-03-01T03:47:45;13.35;;;8.20;;
65656;SDS011;57397;50.096;14.404;2023-03-01T03:50:11;14.52;;;8.13;;
65656;SDS011;57397;50.096;14.404;2023-03-01T03:52:37;13.38;;;8.02;;
65656;SDS011;57397;50.096;14.404;2023-03-01T03:55:04;14.52;;;8.25;;
65656;SDS011;57397;50.096;14.404;2023-03-01T03:57:37;13.00;;;8.15;;
65656;SDS011;57397;50.096;14.404;2023-03-01T04:00:04;13.05;;;8.07;;
65656;SDS011;57397;50.096;14.404;2023-03-01T04:02:31;14.63;;;8.20;;
65656;SDS011;57397;50.096;14.404;2023-03-01T04:04:56;12.27;;;7.70;;
65656;SDS011;57397;50.096;14.404;2023-03-01T04:07:22;13.23;;;8.00;;
65656;SDS011;57397;50.096;14.404;2023-03-01T04:09:47;11.30;;;7.75;;
65656;SDS011;57397;50.096;14.404;2023-03-01T04:12:13;13.70;;;7.93;;
65656;SDS011;57397;50.096;14.404;2023-03-01T04:14:38;13.80;;;8.23;;
65656;SDS011;57397;50.096;14.404;2023-03-01T04:17:04;12.02;;;7.82;;
65656;SDS011;57397;50.096;14.404;2023-03-01T04:19:33;11.82;;;7.88;;
65656;SDS011;57397;50.096;14.404;2023-03-01T04:22:02;13.15;;;7.55;;
65656;SDS011;57397;50.096;14.404;2023-03-01T04:24:37;13.45;;;7.80;;
65656;SDS011;57397;50.096;14.404;2023-03-01T04:27:03;13.93;;;8.23;;
65656;SDS011;57397;50.096;14.404;2023-03-01T04:29:28;14.10;;;7.88;;
65656;SDS011;57397;50.096;14.404;2023-03-01T04:31:54;14.57;;;8.18;;
65656;SDS011;57397;50.096;14.404;2023-03-01T04:34:19;14.48;;;8.65;;
65656;SDS011;57397;50.096;14.404;2023-03-01T04:36:45;14.40;;;8.25;;
65656;SDS011;57397;50.096;14.404;2023-03-01T04:39:11;13.48;;;8.25;;
65656;SDS011;57397;50.096;14.404;2023-03-01T04:41:39;12.98;;;8.00;;
65656;SDS011;57397;50.096;14.404;2023-03-01T04:44:05;14.80;;;8.48;;
65656;SDS011;57397;50.096;14.404;2023-03-01T04:46:31;14.27;;;8.20;;
65656;SDS011;57397;50.096;14.404;2023-03-01T04:48:57;13.60;;;8.23;;
65656;SDS011;57397;50.096;14.404;2023-03-01T04:51:23;15.18;;;8.38;;
65656;SDS011;57397;50.096;14.404;2023-03-01T04:53:51;14.73;;;8.30;;
65656;SDS011;57397;50.096;14.404;2023-03-01T04:56:16;15.05;;;8.13;;
65656;SDS011;57397;50.096;14.404;2023-03-01T04:58:45;14.43;;;8.60;;
65656;SDS011;57397;50.096;14.404;2023-03-01T05:01:12;12.32;;;8.07;;
65656;SDS011;57397;50.096;14.404;2023-03-01T05:03:42;13.40;;;8.18;;
65656;SDS011;57397;50.096;14.404;2023-03-01T05:06:08;12.80;;;7.80;;
65656;SDS011;57397;50.096;14.404;2023-03-01T05:08:34;15.15;;;8.52;;
65656;SDS011;57397;50.096;14.404;2023-03-01T05:11:02;15.10;;;8.20;;
65656;SDS011;57397;50.096;14.404;2023-03-01T05:13:27;14.07;;;8.80;;
65656;SDS011;57397;50.096;14.404;2023-03-01T05:18:23;16.17;;;9.00;;
65656;SDS011;57397;50.096;14.404;2023-03-01T05:20:53;14.23;;;8.07;;
65656;SDS011;57397;50.096;14.404;2023-03-01T05:23:21;14.10;;;8.70;;
65656;SDS011;57397;50.096;14.404;2023-03-01T05:25:47;13.77;;;8.45;;
65656;SDS011;57397;50.096;14.404;2023-03-01T05:28:14;12.18;;;7.72;;
65656;SDS011;57397;50.096;14.404;2023-03-01T05:30:40;14.85;;;7.93;;
65656;SDS011;57397;50.096;14.404;2023-03-01T05:33:06;12.00;;;8.07;;
65656;SDS011;57397;50.096;14.404;2023-03-01T05:35:41;14.05;;;8.35;;
65656;SDS011;57397;50.096;14.404;2023-03-01T05:38:10;13.23;;;8.48;;
65656;SDS011;57397;50.096;14.404;2023-03-01T05:40:39;14.73;;;8.73;;
65656;SDS011;57397;50.096;14.404;2023-03-01T05:43:05;14.85;;;8.70;;
65656;SDS011;57397;50.096;14.404;2023-03-01T05:45:32;14.32;;;8.48;;
65656;SDS011;57397;50.096;14.404;2023-03-01T05:47:58;12.18;;;7.90;;
65656;SDS011;57397;50.096;14.404;2023-03-01T05:50:25;13.20;;;7.78;;
65656;SDS011;57397;50.096;14.404;2023-03-01T05:52:54;15.25;;;8.73;;
65656;SDS011;57397;50.096;14.404;2023-03-01T05:55:21;13.93;;;8.13;;
65656;SDS011;57397;50.096;14.404;2023-03-01T05:57:47;14.40;;;8.38;;
65656;SDS011;57397;50.096;14.404;2023-03-01T06:00:13;15.27;;;8.57;;
65656;SDS011;57397;50.096;14.404;2023-03-01T06:02:40;14.38;;;8.43;;
65656;SDS011;57397;50.096;14.404;2023-03-01T06:05:06;15.43;;;8.50;;
65656;SDS011;57397;50.096;14.404;2023-03-01T06:07:33;14.68;;;8.70;;
65656;SDS011;57397;50.096;14.404;2023-03-01T06:10:00;14.75;;;8.50;;
65656;SDS011;57397;50.096;14.404;2023-03-01T06:12:25;15.13;;;8.38;;
65656;SDS011;57397;50.096;14.404;2023-03-01T06:14:51;14.48;;;8.63;;
65656;SDS011;57397;50.096;14.404;2023-03-01T06:17:16;15.60;;;8.57;;
65656;SDS011;57397;50.096;14.404;2023-03-01T06:19:42;13.70;;;8.68;;
65656;SDS011;57397;50.096;14.404;2023-03-01T06:22:08;13.95;;;7.72;;
65656;SDS011;57397;50.096;14.404;2023-03-01T06:24:34;14.20;;;8.50;;
65656;SDS011;57397;50.096;14.404;2023-03-01T06:27:00;14.63;;;9.02;;
65656;SDS011;57397;50.096;14.404;2023-03-01T06:29:25;13.93;;;7.70;;
65656;SDS011;57397;50.096;14.404;2023-03-01T06:31:51;13.30;;;8.45;;
65656;SDS011;57397;50.096;14.404;2023-03-01T06:34:16;14.23;;;8.32;;
65656;SDS011;57397;50.096;14.404;2023-03-01T06:36:42;14.93;;;8.13;;
65656;SDS011;57397;50.096;14.404;2023-03-01T06:39:08;14.93;;;8.32;;
65656;SDS011;57397;50.096;14.404;2023-03-01T06:41:33;15.07;;;8.23;;
65656;SDS011;57397;50.096;14.404;2023-03-01T06:43:59;13.57;;;8.90;;
65656;SDS011;57397;50.096;14.404;2023-03-01T06:46:25;13.30;;;8.23;;
65656;SDS011;57397;50.096;14.404;2023-03-01T06:48:50;17.77;;;9.15;;
65656;SDS011;57397;50.096;14.404;2023-03-01T06:51:16;13.55;;;8.30;;
65656;SDS011;57397;50.096;14.404;2023-03-01T06:53:41;13.38;;;7.85;;
65656;SDS011;57397;50.096;14.404;2023-03-01T06:56:07;12.75;;;8.35;;
65656;SDS011;57397;50.096;14.404;2023-03-01T06:58:32;14.32;;;8.68;;
65656;SDS011;57397;50.096;14.404;2023-03-01T07:00:58;12.75;;;8.05;;
65656;SDS011;57397;50.096;14.404;2023-03-01T07:03:23;12.43;;;8.02;;
65656;SDS011;57397;50.096;14.404;2023-03-01T07:05:49;15.80;;;8.90;;
65656;SDS011;57397;50.096;14.404;2023-03-01T07:08:17;13.73;;;8.25;;
65656;SDS011;57397;50.096;14.404;2023-03-01T07:10:43;14.20;;;8.57;;
65656;SDS011;57397;50.096;14.404;2023-03-01T07:13:09;13.23;;;8.27;;
65656;SDS011;57397;50.096;14.404;2023-03-01T07:15:34;13.15;;;7.95;;
65656;SDS011;57397;50.096;14.404;2023-03-01T07:18:00;15.98;;;8.65;;
65656;SDS011;57397;50.096;14.404;2023-03-01T07:20:26;16.75;;;8.32;;
65656;SDS011;57397;50.096;14.404;2023-03-01T07:22:52;15.18;;;8.30;;
65656;SDS011;57397;50.096;14.404;2023-03-01T07:25:18;14.05;;;8.73;;
65656;SDS011;57397;50.096;14.404;2023-03-01T07:27:48;13.40;;;8.05;;
65656;SDS011;57397;50.096;14.404;2023-03-01T07:30:17;14.13;;;7.93;;
65656;SDS011;57397;50.096;14.404;2023-03-01T07:32:43;13.52;;;7.82;;
65656;SDS011;57397;50.096;14.404;2023-03-01T07:35:08;13.60;;;8.25;;
65656;SDS011;57397;50.096;14.404;2023-03-01T07:37:34;14.02;;;8.13;;
65656;SDS011;57397;50.096;14.404;2023-03-01T07:39:59;15.15;;;8.00;;
65656;SDS011;57397;50.096;14.404;2023-03-01T07:42:25;14.65;;;8.70;;
65656;SDS011;57397;50.096;14.404;2023-03-01T07:44:50;14.38;;;8.40;;
65656;SDS011;57397;50.096;14.404;2023-03-01T07:47:16;14.00;;;8.40;;
65656;SDS011;57397;50.096;14.404;2023-03-01T07:49:41;13.82;;;7.97;;
65656;SDS011;57397;50.096;14.404;2023-03-01T07:52:09;14.15;;;8.77;;
65656;SDS011;57397;50.096;14.404;2023-03-01T07:54:35;15.15;;;8.95;;
65656;SDS011;57397;50.096;14.404;2023-03-01T07:57:01;15.00;;;8.63;;
65656;SDS011;57397;50.096;14.404;2023-03-01T07:59:27;14.75;;;8.90;;
65656;SDS011;57397;50.096;14.404;2023-03-01T08:01:54;13.23;;;7.97;;
65656;SDS011;57397;50.096;14.404;2023-03-01T08:04:20;15.73;;;8.43;;
65656;SDS011;57397;50.096;14.404;2023-03-01T08:06:46;13.77;;;8.65;;
65656;SDS011;57397;50.096;14.404;2023-03-01T08:09:12;15.50;;;8.77;;
65656;SDS011;57397;50.096;14.404;2023-03-01T08:11:38;13.50;;;8.23;;
65656;SDS011;57397;50.096;14.404;2023-03-01T08:14:03;13.85;;;8.38;;
65656;SDS011;57397;50.096;14.404;2023-03-01T08:16:29;14.30;;;8.48;;
65656;SDS011;57397;50.096;14.404;2023-03-01T08:18:54;15.15;;;8.65;;
65656;SDS011;57397;50.096;14.404;2023-03-01T08:21:21;14.25;;;8.75;;
65656;SDS011;57397;50.096;14.404;2023-03-01T08:23:47;14.07;;;8.38;;
65656;SDS011;57397;50.096;14.404;2023-03-01T08:26:17;17.33;;;9.32;;
65656;SDS011;57397;50.096;14.404;2023-03-01T08:28:45;15.02;;;9.52;;
65656;SDS011;57397;50.096;14.404;2023-03-01T08:31:14;13.95;;;8.93;;
65656;SDS011;57397;50.096;14.404;2023-03-01T08:33:52;15.38;;;8.60;;
65656;SDS011;57397;50.096;14.404;2023-03-01T08:36:23;15.70;;;9.27;;
65656;SDS011;57397;50.096;14.404;2023-03-01T08:38:49;16.92;;;9.25;;
65656;SDS011;57397;50.096;14.404;2023-03-01T08:41:15;16.98;;;9.27;;
65656;SDS011;57397;50.096;14.404;2023-03-01T08:43:41;15.52;;;9.43;;
65656;SDS011;57397;50.096;14.404;2023-03-01T08:46:06;16.95;;;9.32;;
65656;SDS011;57397;50.096;14.404;2023-03-01T08:48:32;16.85;;;9.52;;
65656;SDS011;57397;50.096;14.404;2023-03-01T08:51:06;17.10;;;10.13;;
65656;SDS011;57397;50.096;14.404;2023-03-01T08:53:33;18.92;;;9.90;;
65656;SDS011;57397;50.096;14.404;2023-03-01T08:56:02;16.58;;;9.25;;
65656;SDS011;57397;50.096;14.404;2023-03-01T08:58:28;14.93;;;9.45;;
65656;SDS011;57397;50.096;14.404;2023-03-01T09:00:57;15.35;;;9.48;;
65656;SDS011;57397;50.096;14.404;2023-03-01T09:03:23;16.95;;;9.35;;
65656;SDS011;57397;50.096;14.404;2023-03-01T09:05:49;15.02;;;9.32;;
65656;SDS011;57397;50.096;14.404;2023-03-01T09:08:18;15.90;;;9.55;;
65656;SDS011;57397;50.096;14.404;2023-03-01T09:10:44;14.85;;;9.10;;
65656;SDS011;57397;50.096;14.404;2023-03-01T09:13:09;16.40;;;9.55;;
65656;SDS011;57397;50.096;14.404;2023-03-01T09:15:38;14.80;;;8.90;;
65656;SDS011;57397;50.096;14.404;2023-03-01T09:18:04;15.80;;;9.15;;
65656;SDS011;57397;50.096;14.404;2023-03-01T09:20:30;17.42;;;10.18;;
65656;SDS011;57397;50.096;14.404;2023-03-01T09:22:56;14.90;;;9.30;;
65656;SDS011;57397;50.096;14.404;2023-03-01T09:25:21;15.45;;;9.60;;
65656;SDS011;57397;50.096;14.404;2023-03-01T09:27:47;15.43;;;9.57;;
65656;SDS011;57397;50.096;14.404;2023-03-01T09:30:16;15.73;;;9.52;;
65656;SDS011;57397;50.096;14.404;2023-03-01T09:32:42;15.68;;;9.40;;
65656;SDS011;57397;50.096;14.404;2023-03-01T09:35:09;17.55;;;9.30;;
65656;SDS011;57397;50.096;14.404;2023-03-01T09:37:36;15.73;;;9.13;;
65656;SDS011;57397;50.096;14.404;2023-03-01T09:40:03;15.02;;;8.75;;
65656;SDS011;57397;50.096;14.404;2023-03-01T09:42:31;16.88;;;9.98;;
65656;SDS011;57397;50.096;14.404;2023-03-01T09:45:03;13.45;;;8.65;;
65656;SDS011;57397;50.096;14.404;2023-03-01T09:47:31;14.77;;;9.43;;
65656;SDS011;57397;50.096;14.404;2023-03-01T09:55:15;16.38;;;9.38;;
65656;SDS011;57397;50.096;14.404;2023-03-01T09:57:53;14.93;;;9.25;;
65656;SDS011;57397;50.096;14.404;2023-03-01T10:00:41;13.48;;;9.00;;
65656;SDS011;57397;50.096;14.404;2023-03-01T10:03:14;14.77;;;8.98;;
65656;SDS011;57397;50.096;14.404;2023-03-01T10:05:53;16.40;;;8.97;;
65656;SDS011;57397;50.096;14.404;2023-03-01T10:10:52;14.90;;;8.55;;
65656;SDS011;57397;50.096;14.404;2023-03-01T10:13:24;13.55;;;8.45;;
65656;SDS011;57397;50.096;14.404;2023-03-01T10:15:54;16.70;;;9.10;;
65656;SDS011;57397;50.096;14.404;2023-03-01T10:18:31;15.02;;;8.02;;
65656;SDS011;57397;50.096;14.404;2023-03-01T10:20:59;15.23;;;8.52;;
65656;SDS011;57397;50.096;14.404;2023-03-01T10:23:28;15.25;;;8.93;;
65656;SDS011;57397;50.096;14.404;2023-03-01T10:31:24;13.93;;;8.18;;
65656;SDS011;57397;50.096;14.404;2023-03-01T10:33:53;14.25;;;8.68;;
65656;SDS011;57397;50.096;14.404;2023-03-01T10:36:20;15.70;;;8.63;;
65656;SDS011;57397;50.096;14.404;2023-03-01T10:38:54;15.18;;;8.95;;
65656;SDS011;57397;50.096;14.404;2023-03-01T10:41:22;13.50;;;8.18;;
65656;SDS011;57397;50.096;14.404;2023-03-01T10:49:13;12.20;;;7.88;;
65656;SDS011;57397;50.096;14.404;2023-03-01T10:51:51;12.38;;;7.40;;
65656;SDS011;57397;50.096;14.404;2023-03-01T10:56:51;11.85;;;7.90;;
65656;SDS011;57397;50.096;14.404;2023-03-01T10:59:38;13.77;;;8.02;;
65656;SDS011;57397;50.096;14.404;2023-03-01T11:05:08;13.95;;;7.72;;
65656;SDS011;57397;50.096;14.404;2023-03-01T11:07:55;11.90;;;7.82;;
65656;SDS011;57397;50.096;14.404;2023-03-01T11:10:23;14.95;;;8.38;;
65656;SDS011;57397;50.096;14.404;2023-03-01T11:13:06;10.98;;;7.18;;
65656;SDS011;57397;50.096;14.404;2023-03-01T11:15:32;13.35;;;7.95;;
65656;SDS011;57397;50.096;14.404;2023-03-01T11:17:57;12.50;;;7.45;;
65656;SDS011;57397;50.096;14.404;2023-03-01T11:20:31;12.68;;;7.38;;
65656;SDS011;57397;50.096;14.404;2023-03-01T11:23:05;14.07;;;7.82;;
65656;SDS011;57397;50.096;14.404;2023-03-01T11:25:36;12.43;;;7.30;;
65656;SDS011;57397;50.096;14.404;2023-03-01T11:28:05;13.10;;;7.55;;
65656;SDS011;57397;50.096;14.404;2023-03-01T11:30:34;12.57;;;7.60;;
65656;SDS011;57397;50.096;14.404;2023-03-01T11:33:11;12.73;;;7.43;;
65656;SDS011;57397;50.096;14.404;2023-03-01T11:35:43;13.48;;;7.40;;
65656;SDS011;57397;50.096;14.404;2023-03-01T11:38:26;13.77;;;7.80;;
65656;SDS011;57397;50.096;14.404;2023-03-01T11:41:00;12.57;;;6.88;;
65656;SDS011;57397;50.096;14.404;2023-03-01T11:43:48;11.38;;;7.00;;
65656;SDS011;57397;50.096;14.404;2023-03-01T11:46:31;12.10;;;7.57;;
65656;SDS011;57397;50.096;14.404;2023-03-01T11:54:46;12.77;;;7.25;;
65656;SDS011;57397;50.096;14.404;2023-03-01T12:02:59;12.60;;;7.60;;
65656;SDS011;57397;50.096;14.404;2023-03-01T12:08:34;11.88;;;7.13;;
65656;SDS011;57397;50.096;14.404;2023-03-01T12:11:16;11.52;;;7.13;;
65656;SDS011;57397;50.096;14.404;2023-03-01T12:31:05;11.43;;;6.50;;
65656;SDS011;57397;50.096;14.404;2023-03-01T12:36:41;11.73;;;6.53;;
65656;SDS011;57397;50.096;14.404;2023-03-01T12:50:53;11.52;;;6.68;;
65656;SDS011;57397;50.096;14.404;2023-03-01T12:56:01;10.43;;;6.88;;
65656;SDS011;57397;50.096;14.404;2023-03-01T13:06:30;12.30;;;7.22;;
65656;SDS011;57397;50.096;14.404;2023-03-01T13:11:27;11.32;;;7.40;;
65656;SDS011;57397;50.096;14.404;2023-03-01T13:14:18;12.55;;;7.00;;
65656;SDS011;57397;50.096;14.404;2023-03-01T13:16:53;12.30;;;7.07;;
65656;SDS011;57397;50.096;14.404;2023-03-01T13:19:25;12.70;;;7.45;;
65656;SDS011;57397;50.096;14.404;2023-03-01T13:21:54;11.38;;;6.97;;
65656;SDS011;57397;50.096;14.404;2023-03-01T13:37:45;12.57;;;7.30;;
65656;SDS011;57397;50.096;14.404;2023-03-01T13:42:47;11.27;;;6.82;;
65656;SDS011;57397;50.096;14.404;2023-03-01T13:45:15;10.10;;;6.97;;
65656;SDS011;57397;50.096;14.404;2023-03-01T13:47:43;12.63;;;6.85;;
65656;SDS011;57397;50.096;14.404;2023-03-01T13:50:22;10.75;;;6.30;;
65656;SDS011;57397;50.096;14.404;2023-03-01T13:53:03;12.45;;;6.88;;
65656;SDS011;57397;50.096;14.404;2023-03-01T13:55:41;12.40;;;6.65;;
65656;SDS011;57397;50.096;14.404;2023-03-01T13:58:25;11.23;;;7.15;;
65656;SDS011;57397;50.096;14.404;2023-03-01T14:01:04;10.43;;;6.22;;
65656;SDS011;57397;50.096;14.404;2023-03-01T14:03:32;10.07;;;6.60;;
65656;SDS011;57397;50.096;14.404;2023-03-01T14:06:06;10.73;;;6.53;;
65656;SDS011;57397;50.096;14.404;2023-03-01T14:08:44;10.25;;;6.75;;
65656;SDS011;57397;50.096;14.404;2023-03-01T14:20:29;11.70;;;7.00;;
65656;SDS011;57397;50.096;14.404;2023-03-01T14:22:57;13.15;;;6.95;;
65656;SDS011;57397;50.096;14.404;2023-03-01T14:25:31;10.82;;;6.90;;
65656;SDS011;57397;50.096;14.404;2023-03-01T14:28:02;10.75;;;6.70;;
65656;SDS011;57397;50.096;14.404;2023-03-01T14:30:37;11.80;;;6.75;;
65656;SDS011;57397;50.096;14.404;2023-03-01T14:33:17;9.55;;;6.65;;
65656;SDS011;57397;50.096;14.404;2023-03-01T14:35:54;11.03;;;7.13;;
65656;SDS011;57397;50.096;14.404;2023-03-01T14:38:28;9.80;;;6.63;;
65656;SDS011;57397;50.096;14.404;2023-03-01T14:43:22;8.90;;;6.03;;
65656;SDS011;57397;50.096;14.404;2023-03-01T14:45:49;10.38;;;6.72;;
65656;SDS011;57397;50.096;14.404;2023-03-01T14:48:18;12.68;;;6.72;;
65656;SDS011;57397;50.096;14.404;2023-03-01T14:50:44;11.88;;;6.55;;
65656;SDS011;57397;50.096;14.404;2023-03-01T14:53:17;10.18;;;6.85;;
65656;SDS011;57397;50.096;14.404;2023-03-01T14:55:46;11.65;;;6.97;;
65656;SDS011;57397;50.096;14.404;2023-03-01T14:58:16;9.68;;;6.20;;
65656;SDS011;57397;50.096;14.404;2023-03-01T15:00:52;11.98;;;6.63;;
65656;SDS011;57397;50.096;14.404;2023-03-01T15:03:27;12.23;;;6.88;;
65656;SDS011;57397;50.096;14.404;2023-03-01T15:06:02;11.82;;;6.82;;
65656;SDS011;57397;50.096;14.404;2023-03-01T15:08:29;11.23;;;6.65;;
65656;SDS011;57397;50.096;14.404;2023-03-01T15:13:31;11.20;;;6.50;;
65656;SDS011;57397;50.096;14.404;2023-03-01T15:16:31;10.57;;;6.82;;
65656;SDS011;57397;50.096;14.404;2023-03-01T15:19:15;10.07;;;6.20;;
65656;SDS011;57397;50.096;14.404;2023-03-01T15:21:40;11.27;;;6.85;;
65656;SDS011;57397;50.096;14.404;2023-03-01T15:26:40;10.75;;;6.38;;
65656;SDS011;57397;50.096;14.404;2023-03-01T15:29:11;11.48;;;6.45;;
65656;SDS011;57397;50.096;14.404;2023-03-01T15:31:43;11.55;;;6.53;;
65656;SDS011;57397;50.096;14.404;2023-03-01T15:34:27;11.27;;;6.80;;
65656;SDS011;57397;50.096;14.404;2023-03-01T15:36:54;10.45;;;6.85;;
65656;SDS011;57397;50.096;14.404;2023-03-01T15:45:06;13.15;;;7.20;;
65656;SDS011;57397;50.096;14.404;2023-03-01T15:47:55;12.07;;;7.15;;
65656;SDS011;57397;50.096;14.404;2023-03-01T15:50:31;11.57;;;6.80;;
65656;SDS011;57397;50.096;14.404;2023-03-01T15:53:04;11.63;;;7.10;;
65656;SDS011;57397;50.096;14.404;2023-03-01T15:55:32;11.50;;;6.90;;
65656;SDS011;57397;50.096;14.404;2023-03-01T15:58:31;11.95;;;6.85;;
65656;SDS011;57397;50.096;14.404;2023-03-01T16:00:50;13.95;;;6.85;;
65656;SDS011;57397;50.096;14.404;2023-03-01T16:03:21;13.60;;;6.93;;
65656;SDS011;57397;50.096;14.404;2023-03-01T16:05:49;13.45;;;7.45;;
65656;SDS011;57397;50.096;14.404;2023-03-01T16:08:16;11.50;;;7.05;;
65656;SDS011;57397;50.096;14.404;2023-03-01T16:10:42;12.40;;;7.35;;
65656;SDS011;57397;50.096;14.404;2023-03-01T16:13:13;14.95;;;7.80;;
65656;SDS011;57397;50.096;14.404;2023-03-01T16:15:39;13.45;;;7.55;;
65656;SDS011;57397;50.096;14.404;2023-03-01T16:18:04;12.95;;;7.50;;
65656;SDS011;57397;50.096;14.404;2023-03-01T16:20:31;12.43;;;7.18;;
65656;SDS011;57397;50.096;14.404;2023-03-01T16:22:57;12.75;;;7.32;;
65656;SDS011;57397;50.096;14.404;2023-03-01T16:25:25;15.57;;;7.35;;
65656;SDS011;57397;50.096;14.404;2023-03-01T16:27:51;13.15;;;7.13;;
65656;SDS011;57397;50.096;14.404;2023-03-01T16:30:21;13.85;;;7.70;;
65656;SDS011;57397;50.096;14.404;2023-03-01T16:32:47;14.25;;;7.97;;
65656;SDS011;57397;50.096;14.404;2023-03-01T16:35:15;13.95;;;7.90;;
65656;SDS011;57397;50.096;14.404;2023-03-01T16:37:45;11.90;;;7.25;;
65656;SDS011;57397;50.096;14.404;2023-03-01T16:40:24;12.50;;;7.53;;
65656;SDS011;57397;50.096;14.404;2023-03-01T16:42:53;12.57;;;7.68;;
65656;SDS011;57397;50.096;14.404;2023-03-01T16:45:25;12.80;;;7.30;;
65656;SDS011;57397;50.096;14.404;2023-03-01T16:47:52;12.95;;;7.75;;
65656;SDS011;57397;50.096;14.404;2023-03-01T16:50:18;12.02;;;7.30;;
65656;SDS011;57397;50.096;14.404;2023-03-01T16:52:43;11.85;;;7.50;;
65656;SDS011;57397;50.096;14.404;2023-03-01T16:55:09;14.02;;;8.00;;